sensor_id;sensor_type;location;lat;lon;timestamp;pressure;altitude;pressure_sealevel;temperature;humidity
45253;BME280;63171;50.520;30.486;2023-05-08T00:00:34;101013.53;;;9.65;38.60
45253;BME280;63171;50.520;30.486;2023-05-08T00:05:13;101019.06;;;9.12;38.64
45253;BME280;63171;50.520;30.486;2023-05-08T00:06:04;101012.34;;;9.29;38.93
45253;BME280;63171;50.520;30.486;2023-05-08T00:06:55;101013.72;;;9.39;38.70
45253;BME280;63171;50.520;30.486;2023-05-08T00:07:44;101012.78;;;9.40;38.79
45253;BME280;63171;50.520;30.486;2023-05-08T00:08:35;101012.13;;;9.57;38.85
45253;BME280;63171;50.520;30.486;2023-05-08T00:09:24;101019.19;;;9.55;38.79
45253;BME280;63171;50.520;30.486;2023-05-08T00:10:15;101009.44;;;9.58;38.79
45253;BME280;63171;50.520;30.486;2023-05-08T00:11:05;101012.06;;;9.58;38.86
45253;BME280;63171;50.520;30.486;2023-05-08T00:11:55;101012.63;;;9.66;38.92
45253;BME280;63171;50.520;30.486;2023-05-08T00:12:45;101014.59;;;9.60;38.78
45253;BME280;63171;50.520;30.486;2023-05-08T00:13:35;101021.25;;;9.68;38.86
45253;BME280;63171;50.520;30.486;2023-05-08T00:14:25;101014.97;;;9.72;38.98
45253;BME280;63171;50.520;30.486;2023-05-08T00:15:15;101014.41;;;9.86;38.73
45253;BME280;63171;50.520;30.486;2023-05-08T00:16:06;101010.50;;;9.76;38.85
45253;BME280;63171;50.520;30.486;2023-05-08T00:16:57;101025.38;;;9.74;38.74
45253;BME280;63171;50.520;30.486;2023-05-08T00:17:48;101016.50;;;9.78;38.72
45253;BME280;63171;50.520;30.486;2023-05-08T00:18:37;101018.56;;;9.70;38.70
45253;BME280;63171;50.520;30.486;2023-05-08T00:19:29;101019.63;;;9.66;38.74
45253;BME280;63171;50.520;30.486;2023-05-08T00:20:20;101013.66;;;9.62;38.66
45253;BME280;63171;50.520;30.486;2023-05-08T00:21:11;101016.94;;;9.67;38.65
45253;BME280;63171;50.520;30.486;2023-05-08T00:22:00;101016.94;;;9.67;38.75
45253;BME280;63171;50.520;30.486;2023-05-08T00:22:51;101019.91;;;9.58;38.52
45253;BME280;63171;50.520;30.486;2023-05-08T00:23:41;101021.31;;;9.67;38.71
45253;BME280;63171;50.520;30.486;2023-05-08T00:24:31;101016.16;;;9.65;38.74
45253;BME280;63171;50.520;30.486;2023-05-08T00:25:21;101013.81;;;9.58;38.57
45253;BME280;63171;50.520;30.486;2023-05-08T00:26:11;101015.44;;;9.62;38.73
45253;BME280;63171;50.520;30.486;2023-05-08T00:27:01;101018.88;;;9.62;38.53
45253;BME280;63171;50.520;30.486;2023-05-08T00:27:52;101023.56;;;9.54;38.67
45253;BME280;63171;50.520;30.486;2023-05-08T00:28:42;101028.97;;;9.50;38.79
45253;BME280;63171;50.520;30.486;2023-05-08T00:29:33;101014.44;;;9.64;38.67
45253;BME280;63171;50.520;30.486;2023-05-08T00:30:23;101018.03;;;9.62;38.52
45253;BME280;63171;50.520;30.486;2023-05-08T00:31:14;101020.69;;;9.60;38.51
45253;BME280;63171;50.520;30.486;2023-05-08T00:32:04;101022.53;;;9.58;38.61
45253;BME280;63171;50.520;30.486;2023-05-08T00:32:55;101017.41;;;9.55;38.58
45253;BME280;63171;50.520;30.486;2023-05-08T00:33:44;101021.72;;;9.56;38.62
45253;BME280;63171;50.520;30.486;2023-05-08T00:34:35;101016.56;;;9.55;38.40
45253;BME280;63171;50.520;30.486;2023-05-08T00:35:26;101019.00;;;9.59;38.67
45253;BME280;63171;50.520;30.486;2023-05-08T00:36:18;101021.59;;;9.59;38.69
45253;BME280;63171;50.520;30.486;2023-05-08T00:37:09;101019.84;;;9.60;38.66
45253;BME280;63171;50.520;30.486;2023-05-08T00:37:59;101017.16;;;9.61;38.58
45253;BME280;63171;50.520;30.486;2023-05-08T00:38:49;101016.22;;;9.64;38.69
45253;BME280;63171;50.520;30.486;2023-05-08T00:39:40;101017.97;;;9.63;38.69
45253;BME280;63171;50.520;30.486;2023-05-08T00:40:30;101024.13;;;9.62;38.65
45253;BME280;63171;50.520;30.486;2023-05-08T00:41:20;101025.81;;;9.63;38.58
45253;BME280;63171;50.520;30.486;2023-05-08T00:42:10;101022.16;;;9.67;38.65
45253;BME280;63171;50.520;30.486;2023-05-08T00:43:01;101015.59;;;9.57;38.47
45253;BME280;63171;50.520;30.486;2023-05-08T00:43:50;101018.75;;;9.65;38.65
45253;BME280;63171;50.520;30.486;2023-05-08T00:44:40;101024.13;;;9.62;38.73
45253;BME280;63171;50.520;30.486;2023-05-08T00:45:33;101018.91;;;9.61;38.78
45253;BME280;63171;50.520;30.486;2023-05-08T00:46:25;101018.91;;;9.61;38.53
45253;BME280;63171;50.520;30.486;2023-05-08T00:47:16;101019.53;;;9.67;38.72
45253;BME280;63171;50.520;30.486;2023-05-08T00:48:06;101022.28;;;9.64;38.57
45253;BME280;63171;50.520;30.486;2023-05-08T00:48:56;101014.69;;;9.36;38.64
45253;BME280;63171;50.520;30.486;2023-05-08T00:49:47;101028.75;;;9.32;38.49
45253;BME280;63171;50.520;30.486;2023-05-08T00:50:38;101024.09;;;9.40;38.74
45253;BME280;63171;50.520;30.486;2023-05-08T00:51:29;101031.16;;;9.38;38.81
45253;BME280;63171;50.520;30.486;2023-05-08T00:52:20;101029.19;;;9.43;38.73
45253;BME280;63171;50.520;30.486;2023-05-08T00:53:12;101018.41;;;9.53;38.80
45253;BME280;63171;50.520;30.486;2023-05-08T00:54:02;101022.53;;;9.58;38.70
45253;BME280;63171;50.520;30.486;2023-05-08T00:54:53;101032.25;;;9.55;38.71
45253;BME280;63171;50.520;30.486;2023-05-08T00:55:44;101026.03;;;9.57;38.73
45253;BME280;63171;50.520;30.486;2023-05-08T00:56:36;101023.22;;;9.63;38.88
45253;BME280;63171;50.520;30.486;2023-05-08T00:57:27;101032.00;;;9.39;38.99
45253;BME280;63171;50.520;30.486;2023-05-08T00:58:19;101022.06;;;9.48;38.82
45253;BME280;63171;50.520;30.486;2023-05-08T00:59:10;101024.53;;;9.52;38.92
45253;BME280;63171;50.520;30.486;2023-05-08T01:00:04;101022.59;;;9.57;38.80
45253;BME280;63171;50.520;30.486;2023-05-08T01:00:55;101031.28;;;9.57;38.87
45253;BME280;63171;50.520;30.486;2023-05-08T01:01:47;101024.22;;;9.59;38.82
45253;BME280;63171;50.520;30.486;2023-05-08T01:02:38;101033.09;;;9.55;38.65
45253;BME280;63171;50.520;30.486;2023-05-08T01:03:29;101033.53;;;9.44;38.79
45253;BME280;63171;50.520;30.486;2023-05-08T01:04:23;101030.19;;;9.41;38.79
45253;BME280;63171;50.520;30.486;2023-05-08T01:05:15;101047.91;;;9.33;38.86
45253;BME280;63171;50.520;30.486;2023-05-08T01:06:06;101040.69;;;9.39;38.93
45253;BME280;63171;50.520;30.486;2023-05-08T01:06:57;101035.13;;;9.48;38.84
45253;BME280;63171;50.520;30.486;2023-05-08T01:07:47;101038.16;;;9.38;38.82
45253;BME280;63171;50.520;30.486;2023-05-08T01:08:38;101037.56;;;9.30;38.78
45253;BME280;63171;50.520;30.486;2023-05-08T01:09:28;101031.22;;;9.13;38.75
45253;BME280;63171;50.520;30.486;2023-05-08T01:10:19;101032.47;;;9.03;39.08
45253;BME280;63171;50.520;30.486;2023-05-08T01:11:12;101036.66;;;9.09;38.86
45253;BME280;63171;50.520;30.486;2023-05-08T01:12:11;101038.88;;;9.18;38.99
45253;BME280;63171;50.520;30.486;2023-05-08T01:13:07;101034.44;;;9.20;39.08
45253;BME280;63171;50.520;30.486;2023-05-08T01:14:08;101036.84;;;9.26;39.18
45253;BME280;63171;50.520;30.486;2023-05-08T01:15:05;101036.72;;;9.29;39.26
45253;BME280;63171;50.520;30.486;2023-05-08T01:16:05;101035.50;;;9.16;39.09
45253;BME280;63171;50.520;30.486;2023-05-08T01:17:05;101042.53;;;9.14;39.19
45253;BME280;63171;50.520;30.486;2023-05-08T01:18:05;101036.06;;;9.24;39.29
45253;BME280;63171;50.520;30.486;2023-05-08T01:19:02;101036.72;;;9.29;39.34
45253;BME280;63171;50.520;30.486;2023-05-08T01:20:02;101035.28;;;9.22;39.33
45253;BME280;63171;50.520;30.486;2023-05-08T01:21:01;101037.44;;;9.33;39.31
45253;BME280;63171;50.520;30.486;2023-05-08T01:21:59;101047.66;;;9.17;39.18
45253;BME280;63171;50.520;30.486;2023-05-08T01:23:25;101035.22;;;9.24;39.37
45253;BME280;63171;50.520;30.486;2023-05-08T01:26:03;101027.81;;;9.35;39.45
45253;BME280;63171;50.520;30.486;2023-05-08T01:28:42;101043.44;;;9.13;39.51
45253;BME280;63171;50.520;30.486;2023-05-08T01:31:17;101044.22;;;8.92;39.29
45253;BME280;63171;50.520;30.486;2023-05-08T01:32:16;101049.63;;;8.87;39.38
45253;BME280;63171;50.520;30.486;2023-05-08T01:33:13;101050.72;;;8.81;39.46
45253;BME280;63171;50.520;30.486;2023-05-08T01:34:09;101038.00;;;8.96;39.56
45253;BME280;63171;50.520;30.486;2023-05-08T01:35:09;101034.91;;;9.08;39.46
45253;BME280;63171;50.520;30.486;2023-05-08T01:36:10;101051.34;;;9.11;39.45
45253;BME280;63171;50.520;30.486;2023-05-08T01:37:11;101050.72;;;9.05;39.48
45253;BME280;63171;50.520;30.486;2023-05-08T01:38:07;101060.38;;;9.03;39.65
45253;BME280;63171;50.520;30.486;2023-05-08T01:39:07;101060.31;;;9.04;39.71
45253;BME280;63171;50.520;30.486;2023-05-08T01:40:07;101060.16;;;9.09;39.39
45253;BME280;63171;50.520;30.486;2023-05-08T01:41:04;101050.13;;;9.20;39.75
45253;BME280;63171;50.520;30.486;2023-05-08T01:41:59;101050.25;;;9.17;39.67
45253;BME280;63171;50.520;30.486;2023-05-08T01:42:57;101051.00;;;8.97;39.62
45253;BME280;63171;50.520;30.486;2023-05-08T01:43:55;101059.69;;;8.98;39.58
45253;BME280;63171;50.520;30.486;2023-05-08T01:44:53;101051.06;;;8.96;39.41
45253;BME280;63171;50.520;30.486;2023-05-08T01:45:47;101059.56;;;8.77;39.71
45253;BME280;63171;50.520;30.486;2023-05-08T01:46:39;101057.16;;;8.71;39.76
45253;BME280;63171;50.520;30.486;2023-05-08T01:47:32;101049.34;;;8.71;39.73
45253;BME280;63171;50.520;30.486;2023-05-08T01:48:29;101048.06;;;8.83;39.87
45253;BME280;63171;50.520;30.486;2023-05-08T01:49:23;101062.47;;;8.93;39.82
45253;BME280;63171;50.520;30.486;2023-05-08T01:50:18;101055.38;;;8.97;40.03
45253;BME280;63171;50.520;30.486;2023-05-08T01:51:16;101047.25;;;9.04;39.94
45253;BME280;63171;50.520;30.486;2023-05-08T01:52:12;101052.41;;;9.29;39.89
45253;BME280;63171;50.520;30.486;2023-05-08T01:53:11;101039.91;;;9.37;40.02
45253;BME280;63171;50.520;30.486;2023-05-08T01:54:08;101063.00;;;9.26;39.93
45253;BME280;63171;50.520;30.486;2023-05-08T01:55:02;101041.28;;;9.24;39.89
45253;BME280;63171;50.520;30.486;2023-05-08T01:55:57;101052.81;;;9.18;40.41
45253;BME280;63171;50.520;30.486;2023-05-08T01:56:49;101056.97;;;9.24;40.01
45253;BME280;63171;50.520;30.486;2023-05-08T01:57:45;101056.00;;;9.27;39.84
45253;BME280;63171;50.520;30.486;2023-05-08T01:58:36;101048.88;;;9.30;40.07
45253;BME280;63171;50.520;30.486;2023-05-08T01:59:29;101064.13;;;9.19;39.88
45253;BME280;63171;50.520;30.486;2023-05-08T02:00:22;101050.44;;;9.12;40.04
45253;BME280;63171;50.520;30.486;2023-05-08T02:01:17;101047.31;;;9.26;40.04
45253;BME280;63171;50.520;30.486;2023-05-08T02:02:09;101054.97;;;9.31;40.35
45253;BME280;63171;50.520;30.486;2023-05-08T02:03:05;101051.50;;;9.07;40.05
45253;BME280;63171;50.520;30.486;2023-05-08T02:03:56;101054.50;;;9.19;39.78
45253;BME280;63171;50.520;30.486;2023-05-08T02:04:49;101052.97;;;9.37;39.97
45253;BME280;63171;50.520;30.486;2023-05-08T02:05:41;101050.81;;;9.48;40.16
45253;BME280;63171;50.520;30.486;2023-05-08T02:06:33;101050.25;;;9.40;40.15
45253;BME280;63171;50.520;30.486;2023-05-08T02:07:24;101057.69;;;9.28;40.00
45253;BME280;63171;50.520;30.486;2023-05-08T02:08:17;101066.53;;;9.47;40.27
45253;BME280;63171;50.520;30.486;2023-05-08T02:09:09;101058.63;;;9.27;40.11
45253;BME280;63171;50.520;30.486;2023-05-08T02:10:02;101058.38;;;9.33;40.16
45253;BME280;63171;50.520;30.486;2023-05-08T02:10:52;101065.28;;;9.35;40.26
45253;BME280;63171;50.520;30.486;2023-05-08T02:11:46;101056.28;;;9.19;40.11
45253;BME280;63171;50.520;30.486;2023-05-08T02:12:41;101057.56;;;9.09;40.24
45253;BME280;63171;50.520;30.486;2023-05-08T02:13:32;101055.78;;;9.09;40.31
45253;BME280;63171;50.520;30.486;2023-05-08T02:14:25;101056.53;;;9.13;40.36
45253;BME280;63171;50.520;30.486;2023-05-08T02:15:16;101060.50;;;9.00;40.28
45253;BME280;63171;50.520;30.486;2023-05-08T02:16:09;101073.50;;;9.01;40.36
45253;BME280;63171;50.520;30.486;2023-05-08T02:17:01;101061.94;;;9.08;40.35
45253;BME280;63171;50.520;30.486;2023-05-08T02:17:53;101061.44;;;9.21;40.59
45253;BME280;63171;50.520;30.486;2023-05-08T02:18:47;101051.81;;;9.23;40.53
45253;BME280;63171;50.520;30.486;2023-05-08T02:19:40;101058.94;;;9.17;40.53
45253;BME280;63171;50.520;30.486;2023-05-08T02:20:31;101062.53;;;8.92;40.53
45253;BME280;63171;50.520;30.486;2023-05-08T02:21:22;101072.91;;;8.93;40.37
45253;BME280;63171;50.520;30.486;2023-05-08T02:22:14;101067.75;;;8.92;40.58
45253;BME280;63171;50.520;30.486;2023-05-08T02:23:05;101069.34;;;8.96;40.68
45253;BME280;63171;50.520;30.486;2023-05-08T02:23:56;101070.06;;;8.76;40.71
45253;BME280;63171;50.520;30.486;2023-05-08T02:24:47;101072.47;;;8.82;40.59
45253;BME280;63171;50.520;30.486;2023-05-08T02:25:41;101065.81;;;8.73;40.64
45253;BME280;63171;50.520;30.486;2023-05-08T02:26:33;101070.66;;;8.84;40.48
45253;BME280;63171;50.520;30.486;2023-05-08T02:27:26;101079.97;;;8.91;40.77
45253;BME280;63171;50.520;30.486;2023-05-08T02:28:17;101079.00;;;8.94;40.75
45253;BME280;63171;50.520;30.486;2023-05-08T02:29:08;101079.41;;;9.06;40.82
45253;BME280;63171;50.520;30.486;2023-05-08T02:29:59;101070.81;;;9.03;40.83
45253;BME280;63171;50.520;30.486;2023-05-08T02:30:51;101081.41;;;9.00;40.79
45253;BME280;63171;50.520;30.486;2023-05-08T02:31:41;101082.50;;;8.69;40.73
45253;BME280;63171;50.520;30.486;2023-05-08T02:32:33;101081.28;;;8.78;40.93
45253;BME280;63171;50.520;30.486;2023-05-08T02:33:26;101079.47;;;8.80;40.97
45253;BME280;63171;50.520;30.486;2023-05-08T02:34:19;101077.56;;;8.85;40.97
45253;BME280;63171;50.520;30.486;2023-05-08T02:35:11;101080.44;;;8.77;40.95
45253;BME280;63171;50.520;30.486;2023-05-08T02:36:04;101073.09;;;8.88;40.96
45253;BME280;63171;50.520;30.486;2023-05-08T02:36:54;101085.81;;;8.98;41.12
45253;BME280;63171;50.520;30.486;2023-05-08T02:37:48;101088.66;;;8.92;40.91
45253;BME280;63171;50.520;30.486;2023-05-08T02:38:40;101076.25;;;8.73;40.96
45253;BME280;63171;50.520;30.486;2023-05-08T02:39:34;101080.06;;;8.88;41.01
45253;BME280;63171;50.520;30.486;2023-05-08T02:40:27;101085.53;;;8.82;40.90
45253;BME280;63171;50.520;30.486;2023-05-08T02:41:20;101083.13;;;8.76;41.07
45253;BME280;63171;50.520;30.486;2023-05-08T02:42:12;101080.69;;;8.95;40.98
45253;BME280;63171;50.520;30.486;2023-05-08T02:43:03;101089.78;;;8.59;40.79
45253;BME280;63171;50.520;30.486;2023-05-08T02:43:53;101096.38;;;8.45;41.03
45253;BME280;63171;50.520;30.486;2023-05-08T02:44:44;101089.13;;;8.53;41.18
45253;BME280;63171;50.520;30.486;2023-05-08T02:45:40;101094.41;;;8.51;41.21
45253;BME280;63171;50.520;30.486;2023-05-08T02:46:38;101085.91;;;8.71;41.35
45253;BME280;63171;50.520;30.486;2023-05-08T02:47:34;101085.47;;;8.58;41.28
45253;BME280;63171;50.520;30.486;2023-05-08T02:48:32;101083.00;;;8.54;41.39
45253;BME280;63171;50.520;30.486;2023-05-08T02:49:28;101093.69;;;8.73;41.30
45253;BME280;63171;50.520;30.486;2023-05-08T02:50:22;101095.50;;;8.71;41.39
45253;BME280;63171;50.520;30.486;2023-05-08T02:51:19;101088.19;;;8.55;41.42
45253;BME280;63171;50.520;30.486;2023-05-08T02:52:12;101082.53;;;8.68;41.48
45253;BME280;63171;50.520;30.486;2023-05-08T02:53:10;101095.25;;;8.77;41.55
45253;BME280;63171;50.520;30.486;2023-05-08T02:54:08;101090.75;;;8.57;41.71
45253;BME280;63171;50.520;30.486;2023-05-08T02:55:02;101092.28;;;8.63;41.38
45253;BME280;63171;50.520;30.486;2023-05-08T02:55:57;101103.75;;;8.83;41.52
45253;BME280;63171;50.520;30.486;2023-05-08T02:56:54;101088.66;;;8.92;41.58
45253;BME280;63171;50.520;30.486;2023-05-08T02:57:52;101102.56;;;8.92;41.78
45253;BME280;63171;50.520;30.486;2023-05-08T02:58:54;101100.72;;;8.96;41.37
45253;BME280;63171;50.520;30.486;2023-05-08T02:59:55;101100.00;;;8.91;41.34
45253;BME280;63171;50.520;30.486;2023-05-08T03:00:48;101108.38;;;9.00;41.49
45253;BME280;63171;50.520;30.486;2023-05-08T03:01:47;101101.59;;;8.95;41.38
45253;BME280;63171;50.520;30.486;2023-05-08T03:02:40;101106.25;;;8.86;41.41
45253;BME280;63171;50.520;30.486;2023-05-08T03:03:37;101106.03;;;8.93;41.40
45253;BME280;63171;50.520;30.486;2023-05-08T03:04:35;101102.47;;;8.95;41.39
45253;BME280;63171;50.520;30.486;2023-05-08T03:05:29;101105.88;;;8.97;41.30
45253;BME280;63171;50.520;30.486;2023-05-08T03:06:23;101100.44;;;8.78;41.31
45253;BME280;63171;50.520;30.486;2023-05-08T03:07:18;101108.88;;;8.86;41.16
45253;BME280;63171;50.520;30.486;2023-05-08T03:08:13;101113.66;;;8.74;41.24
45253;BME280;63171;50.520;30.486;2023-05-08T03:09:05;101104.97;;;8.73;41.47
45253;BME280;63171;50.520;30.486;2023-05-08T03:10:02;101111.47;;;8.86;41.37
45253;BME280;63171;50.520;30.486;2023-05-08T03:10:58;101120.00;;;8.92;41.24
45253;BME280;63171;50.520;30.486;2023-05-08T03:11:54;101110.81;;;9.05;41.37
45253;BME280;63171;50.520;30.486;2023-05-08T03:12:50;101118.53;;;9.08;41.08
45253;BME280;63171;50.520;30.486;2023-05-08T03:13:42;101116.22;;;9.00;41.28
45253;BME280;63171;50.520;30.486;2023-05-08T03:14:38;101119.69;;;9.01;41.35
45253;BME280;63171;50.520;30.486;2023-05-08T03:15:36;101123.75;;;9.08;41.51
45253;BME280;63171;50.520;30.486;2023-05-08T03:16:31;101124.34;;;9.16;41.33
45253;BME280;63171;50.520;30.486;2023-05-08T03:17:25;101132.31;;;9.13;41.21
45253;BME280;63171;50.520;30.486;2023-05-08T03:18:20;101127.56;;;8.99;41.15
45253;BME280;63171;50.520;30.486;2023-05-08T03:19:15;101124.47;;;8.88;41.15
45253;BME280;63171;50.520;30.486;2023-05-08T03:20:14;101122.97;;;8.81;41.20
45253;BME280;63171;50.520;30.486;2023-05-08T03:21:07;101128.69;;;8.92;41.22
45253;BME280;63171;50.520;30.486;2023-05-08T03:21:59;101125.88;;;8.98;41.16
45253;BME280;63171;50.520;30.486;2023-05-08T03:22:52;101123.16;;;9.01;41.06
45253;BME280;63171;50.520;30.486;2023-05-08T03:23:45;101123.69;;;9.11;41.24
45253;BME280;63171;50.520;30.486;2023-05-08T03:24:38;101128.19;;;9.06;41.11
45253;BME280;63171;50.520;30.486;2023-05-08T03:25:33;101129.75;;;9.11;41.16
45253;BME280;63171;50.520;30.486;2023-05-08T03:26:24;101133.75;;;9.22;41.18
45253;BME280;63171;50.520;30.486;2023-05-08T03:27:16;101128.59;;;9.18;41.22
45253;BME280;63171;50.520;30.486;2023-05-08T03:28:08;101136.00;;;8.82;40.96
45253;BME280;63171;50.520;30.486;2023-05-08T03:29:00;101125.16;;;8.93;41.07
45253;BME280;63171;50.520;30.486;2023-05-08T03:29:54;101134.06;;;9.12;41.12
45253;BME280;63171;50.520;30.486;2023-05-08T03:30:47;101127.69;;;9.19;41.14
45253;BME280;63171;50.520;30.486;2023-05-08T03:31:38;101137.28;;;8.96;41.02
45253;BME280;63171;50.520;30.486;2023-05-08T03:32:32;101129.16;;;8.78;41.16
45253;BME280;63171;50.520;30.486;2023-05-08T03:33:23;101130.13;;;8.76;41.12
45253;BME280;63171;50.520;30.486;2023-05-08T03:34:16;101135.16;;;8.82;41.07
45253;BME280;63171;50.520;30.486;2023-05-08T03:35:08;101141.53;;;8.73;41.03
45253;BME280;63171;50.520;30.486;2023-05-08T03:36:00;101132.13;;;8.68;41.05
45253;BME280;63171;50.520;30.486;2023-05-08T03:36:50;101135.47;;;8.73;41.06
45253;BME280;63171;50.520;30.486;2023-05-08T03:37:41;101138.22;;;8.93;41.21
45253;BME280;63171;50.520;30.486;2023-05-08T03:38:33;101127.88;;;9.15;41.54
45253;BME280;63171;50.520;30.486;2023-05-08T03:39:24;101139.25;;;9.14;41.15
45253;BME280;63171;50.520;30.486;2023-05-08T03:40:14;101140.09;;;9.14;41.02
45253;BME280;63171;50.520;30.486;2023-05-08T03:41:05;101138.97;;;9.22;41.50
45253;BME280;63171;50.520;30.486;2023-05-08T03:41:55;101139.81;;;9.22;41.05
45253;BME280;63171;50.520;30.486;2023-05-08T03:42:47;101141.47;;;9.25;41.19
45253;BME280;63171;50.520;30.486;2023-05-08T03:43:38;101140.63;;;9.24;41.07
45253;BME280;63171;50.520;30.486;2023-05-08T03:44:31;101143.66;;;9.12;40.75
45253;BME280;63171;50.520;30.486;2023-05-08T03:45:21;101146.00;;;9.19;41.05
45253;BME280;63171;50.520;30.486;2023-05-08T03:46:12;101146.00;;;9.19;41.06
45253;BME280;63171;50.520;30.486;2023-05-08T03:47:02;101150.91;;;9.04;40.93
45253;BME280;63171;50.520;30.486;2023-05-08T03:47:54;101145.44;;;9.11;41.20
45253;BME280;63171;50.520;30.486;2023-05-08T03:48:45;101150.13;;;9.02;41.07
45253;BME280;63171;50.520;30.486;2023-05-08T03:49:37;101145.81;;;8.76;40.60
45253;BME280;63171;50.520;30.486;2023-05-08T03:50:28;101147.63;;;8.99;40.96
45253;BME280;63171;50.520;30.486;2023-05-08T03:51:21;101148.78;;;9.15;41.02
45253;BME280;63171;50.520;30.486;2023-05-08T03:52:12;101148.41;;;9.26;41.06
45253;BME280;63171;50.520;30.486;2023-05-08T03:53:04;101157.22;;;9.23;41.01
45253;BME280;63171;50.520;30.486;2023-05-08T03:53:53;101149.94;;;9.31;40.96
45253;BME280;63171;50.520;30.486;2023-05-08T03:54:44;101149.88;;;9.33;40.96
45253;BME280;63171;50.520;30.486;2023-05-08T03:55:35;101155.09;;;9.33;40.86
45253;BME280;63171;50.520;30.486;2023-05-08T03:56:28;101152.41;;;9.36;40.94
45253;BME280;63171;50.520;30.486;2023-05-08T03:57:18;101150.56;;;9.38;40.84
45253;BME280;63171;50.520;30.486;2023-05-08T03:58:19;101149.41;;;9.45;40.94
45253;BME280;63171;50.520;30.486;2023-05-08T03:59:15;101157.16;;;9.48;40.91
45253;BME280;63171;50.520;30.486;2023-05-08T04:00:13;101155.41;;;9.48;40.77
45253;BME280;63171;50.520;30.486;2023-05-08T04:01:12;101162.16;;;9.31;40.73
45253;BME280;63171;50.520;30.486;2023-05-08T04:02:12;101153.13;;;9.39;40.82
45253;BME280;63171;50.520;30.486;2023-05-08T04:03:15;101160.19;;;9.37;40.69
45253;BME280;63171;50.520;30.486;2023-05-08T04:04:10;101163.56;;;9.16;40.59
45253;BME280;63171;50.520;30.486;2023-05-08T04:05:09;101165.56;;;9.33;40.86
45253;BME280;63171;50.520;30.486;2023-05-08T04:06:09;101165.34;;;9.39;40.76
45253;BME280;63171;50.520;30.486;2023-05-08T04:07:06;101169.50;;;9.44;40.64
45253;BME280;63171;50.520;30.486;2023-05-08T04:08:08;101168.56;;;9.45;40.59
45253;BME280;63171;50.520;30.486;2023-05-08T04:09:04;101161.19;;;9.33;40.70
45253;BME280;63171;50.520;30.486;2023-05-08T04:10:02;101164.75;;;9.31;40.56
45253;BME280;63171;50.520;30.486;2023-05-08T04:11:03;101160.91;;;9.41;40.78
45253;BME280;63171;50.520;30.486;2023-05-08T04:12:01;101165.34;;;9.39;40.60
45253;BME280;63171;50.520;30.486;2023-05-08T04:12:56;101164.97;;;9.50;40.74
45253;BME280;63171;50.520;30.486;2023-05-08T04:13:56;101164.59;;;9.59;40.46
45253;BME280;63171;50.520;30.486;2023-05-08T04:14:52;101168.59;;;9.69;40.84
45253;BME280;63171;50.520;30.486;2023-05-08T04:15:47;101168.66;;;9.67;40.56
45253;BME280;63171;50.520;30.486;2023-05-08T04:16:53;101167.97;;;9.62;40.59
45253;BME280;63171;50.520;30.486;2023-05-08T04:17:48;101169.69;;;9.63;40.50
45253;BME280;63171;50.520;30.486;2023-05-08T04:18:44;101175.63;;;9.67;40.60
45253;BME280;63171;50.520;30.486;2023-05-08T04:19:37;101171.13;;;9.70;40.60
45253;BME280;63171;50.520;30.486;2023-05-08T04:20:32;101174.47;;;9.74;40.62
45253;BME280;63171;50.520;30.486;2023-05-08T04:21:24;101168.84;;;9.61;40.46
45253;BME280;63171;50.520;30.486;2023-05-08T04:22:19;101175.75;;;9.64;40.53
45253;BME280;63171;50.520;30.486;2023-05-08T04:23:13;101174.09;;;9.61;40.26
45253;BME280;63171;50.520;30.486;2023-05-08T04:24:08;101180.69;;;9.71;40.41
45253;BME280;63171;50.520;30.486;2023-05-08T04:25:03;101178.00;;;9.73;40.46
45253;BME280;63171;50.520;30.486;2023-05-08T04:25:57;101170.78;;;9.80;40.50
45253;BME280;63171;50.520;30.486;2023-05-08T04:26:49;101180.34;;;9.81;40.27
45253;BME280;63171;50.520;30.486;2023-05-08T04:27:40;101179.31;;;9.85;40.27
45253;BME280;63171;50.520;30.486;2023-05-08T04:28:32;101170.50;;;9.87;40.22
45253;BME280;63171;50.520;30.486;2023-05-08T04:29:23;101169.63;;;9.87;40.23
45253;BME280;63171;50.520;30.486;2023-05-08T04:30:14;101174.66;;;9.69;40.04
45253;BME280;63171;50.520;30.486;2023-05-08T04:31:06;101177.44;;;9.88;40.16
45253;BME280;63171;50.520;30.486;2023-05-08T04:31:58;101173.81;;;9.92;40.17
45253;BME280;63171;50.520;30.486;2023-05-08T04:32:49;101171.41;;;9.86;40.08
45253;BME280;63171;50.520;30.486;2023-05-08T04:33:41;101180.00;;;9.90;40.11
45253;BME280;63171;50.520;30.486;2023-05-08T04:34:31;101172.56;;;9.79;40.08
45253;BME280;63171;50.520;30.486;2023-05-08T04:35:22;101178.66;;;9.80;40.03
45253;BME280;63171;50.520;30.486;2023-05-08T04:36:12;101184.38;;;9.89;40.01
45253;BME280;63171;50.520;30.486;2023-05-08T04:37:05;101185.47;;;9.84;40.04
45253;BME280;63171;50.520;30.486;2023-05-08T04:37:57;101187.16;;;9.85;40.08
45253;BME280;63171;50.520;30.486;2023-05-08T04:38:48;101182.69;;;9.65;39.71
45253;BME280;63171;50.520;30.486;2023-05-08T04:39:38;101181.59;;;9.70;39.73
45253;BME280;63171;50.520;30.486;2023-05-08T04:40:29;101184.91;;;9.75;39.81
45253;BME280;63171;50.520;30.486;2023-05-08T04:41:19;101185.81;;;9.51;39.82
45253;BME280;63171;50.520;30.486;2023-05-08T04:42:11;101182.91;;;9.59;39.71
45253;BME280;63171;50.520;30.486;2023-05-08T04:43:01;101182.75;;;9.63;39.69
45253;BME280;63171;50.520;30.486;2023-05-08T04:43:52;101186.81;;;9.47;39.80
45253;BME280;63171;50.520;30.486;2023-05-08T04:44:42;101184.25;;;9.45;39.91
45253;BME280;63171;50.520;30.486;2023-05-08T04:45:33;101184.41;;;9.66;39.81
45253;BME280;63171;50.520;30.486;2023-05-08T04:46:22;101188.31;;;9.77;39.84
45253;BME280;63171;50.520;30.486;2023-05-08T04:47:14;101181.78;;;9.89;39.51
45253;BME280;63171;50.520;30.486;2023-05-08T04:48:04;101180.00;;;9.90;39.82